sensor_id;sensor_type;location;lat;lon;timestamp;P1;durP1;ratioP1;P2;durP2;ratioP2
28802;SDS011;15949;55.656;37.422;2023-01-26T00:03:05;25.73;;;13.10;;
28802;SDS011;15949;55.656;37.422;2023-01-26T00:08:11;26.55;;;13.63;;
28802;SDS011;15949;55.656;37.422;2023-01-26T00:13:17;28.98;;;14.13;;
28802;SDS011;15949;55.656;37.422;2023-01-26T00:18:27;30.48;;;14.23;;
28802;SDS011;15949;55.656;37.422;2023-01-26T00:23:33;23.35;;;13.20;;
28802;SDS011;15949;55.656;37.422;2023-01-26T00:28:39;24.90;;;13.10;;
28802;SDS011;15949;55.656;37.422;2023-01-26T00:33:45;24.52;;;12.32;;
28802;SDS011;15949;55.656;37.422;2023-01-26T00:38:51;23.23;;;12.48;;
28802;SDS011;15949;55.656;37.422;2023-01-26T00:43:56;23.90;;;12.63;;
28802;SDS011;15949;55.656;37.422;2023-01-26T00:49:02;22.65;;;12.32;;
28802;SDS011;15949;55.656;37.422;2023-01-26T00:54:07;23.05;;;12.15;;
28802;SDS011;15949;55.656;37.422;2023-01-26T00:59:13;20.90;;;12.27;;
28802;SDS011;15949;55.656;37.422;2023-01-26T01:04:19;21.25;;;11.63;;
28802;SDS011;15949;55.656;37.422;2023-01-26T01:09:25;20.08;;;11.35;;
28802;SDS011;15949;55.656;37.422;2023-01-26T01:14:30;19.08;;;11.32;;
28802;SDS011;15949;55.656;37.422;2023-01-26T01:19:36;24.23;;;11.30;;
28802;SDS011;15949;55.656;37.422;2023-01-26T01:24:42;19.17;;;11.05;;
28802;SDS011;15949;55.656;37.422;2023-01-26T01:29:48;18.65;;;11.02;;
28802;SDS011;15949;55.656;37.422;2023-01-26T01:34:55;18.75;;;11.10;;
28802;SDS011;15949;55.656;37.422;2023-01-26T01:40:00;17.88;;;10.80;;
28802;SDS011;15949;55.656;37.422;2023-01-26T01:50:30;20.90;;;11.57;;
28802;SDS011;15949;55.656;37.422;2023-01-26T01:55:41;18.15;;;11.07;;
28802;SDS011;15949;55.656;37.422;2023-01-26T02:00:47;20.30;;;10.98;;
28802;SDS011;15949;55.656;37.422;2023-01-26T02:05:54;18.80;;;11.43;;
28802;SDS011;15949;55.656;37.422;2023-01-26T02:16:21;20.35;;;11.13;;
28802;SDS011;15949;55.656;37.422;2023-01-26T02:21:26;20.05;;;11.32;;
28802;SDS011;15949;55.656;37.422;2023-01-26T02:26:32;20.23;;;11.40;;
28802;SDS011;15949;55.656;37.422;2023-01-26T02:31:39;23.95;;;12.65;;
28802;SDS011;15949;55.656;37.422;2023-01-26T02:36:55;20.92;;;11.95;;
28802;SDS011;15949;55.656;37.422;2023-01-26T02:42:01;20.48;;;12.05;;
28802;SDS011;15949;55.656;37.422;2023-01-26T02:47:26;21.75;;;12.13;;
28802;SDS011;15949;55.656;37.422;2023-01-26T02:52:31;22.85;;;12.50;;
28802;SDS011;15949;55.656;37.422;2023-01-26T02:57:37;23.30;;;12.60;;
28802;SDS011;15949;55.656;37.422;2023-01-26T03:02:43;24.10;;;12.63;;
28802;SDS011;15949;55.656;37.422;2023-01-26T03:07:51;22.05;;;11.48;;
28802;SDS011;15949;55.656;37.422;2023-01-26T03:12:56;23.67;;;12.73;;
28802;SDS011;15949;55.656;37.422;2023-01-26T03:18:04;22.95;;;12.65;;
28802;SDS011;15949;55.656;37.422;2023-01-26T03:23:36;22.52;;;12.80;;
28802;SDS011;15949;55.656;37.422;2023-01-26T03:29:00;24.92;;;13.13;;
28802;SDS011;15949;55.656;37.422;2023-01-26T03:34:06;24.67;;;12.45;;
28802;SDS011;15949;55.656;37.422;2023-01-26T03:39:11;23.85;;;13.05;;
28802;SDS011;15949;55.656;37.422;2023-01-26T03:44:37;21.00;;;12.70;;
28802;SDS011;15949;55.656;37.422;2023-01-26T03:50:01;23.30;;;13.15;;
28802;SDS011;15949;55.656;37.422;2023-01-26T03:55:25;22.25;;;12.68;;
28802;SDS011;15949;55.656;37.422;2023-01-26T04:00:50;22.38;;;11.82;;
28802;SDS011;15949;55.656;37.422;2023-01-26T04:05:57;21.48;;;12.27;;
28802;SDS011;15949;55.656;37.422;2023-01-26T04:11:21;21.10;;;12.63;;
28802;SDS011;15949;55.656;37.422;2023-01-26T04:16:27;22.02;;;12.18;;
28802;SDS011;15949;55.656;37.422;2023-01-26T04:21:51;21.63;;;11.63;;
28802;SDS011;15949;55.656;37.422;2023-01-26T04:26:57;24.35;;;12.55;;
28802;SDS011;15949;55.656;37.422;2023-01-26T04:32:02;20.73;;;12.65;;
28802;SDS011;15949;55.656;37.422;2023-01-26T04:37:08;19.92;;;12.13;;
28802;SDS011;15949;55.656;37.422;2023-01-26T04:42:14;23.55;;;12.07;;
28802;SDS011;15949;55.656;37.422;2023-01-26T04:47:20;21.52;;;12.35;;
28802;SDS011;15949;55.656;37.422;2023-01-26T04:52:26;26.27;;;13.07;;
28802;SDS011;15949;55.656;37.422;2023-01-26T04:57:31;21.70;;;13.32;;
28802;SDS011;15949;55.656;37.422;2023-01-26T05:02:37;20.50;;;12.55;;
28802;SDS011;15949;55.656;37.422;2023-01-26T05:07:44;23.08;;;13.57;;
28802;SDS011;15949;55.656;37.422;2023-01-26T05:12:49;22.15;;;13.20;;
28802;SDS011;15949;55.656;37.422;2023-01-26T05:17:58;23.70;;;13.40;;
28802;SDS011;15949;55.656;37.422;2023-01-26T05:23:04;21.07;;;12.87;;
28802;SDS011;15949;55.656;37.422;2023-01-26T05:28:09;22.05;;;13.07;;
28802;SDS011;15949;55.656;37.422;2023-01-26T05:33:15;23.75;;;13.77;;
28802;SDS011;15949;55.656;37.422;2023-01-26T05:38:21;21.55;;;13.00;;
28802;SDS011;15949;55.656;37.422;2023-01-26T05:43:26;22.00;;;13.23;;
28802;SDS011;15949;55.656;37.422;2023-01-26T05:48:32;23.80;;;14.13;;
28802;SDS011;15949;55.656;37.422;2023-01-26T05:53:37;22.75;;;13.65;;
28802;SDS011;15949;55.656;37.422;2023-01-26T05:58:43;22.95;;;13.93;;
28802;SDS011;15949;55.656;37.422;2023-01-26T06:03:49;22.35;;;13.82;;
28802;SDS011;15949;55.656;37.422;2023-01-26T06:08:54;22.92;;;13.52;;
28802;SDS011;15949;55.656;37.422;2023-01-26T06:14:00;22.70;;;13.43;;
28802;SDS011;15949;55.656;37.422;2023-01-26T06:19:07;23.05;;;13.48;;
28802;SDS011;15949;55.656;37.422;2023-01-26T06:24:14;23.30;;;13.73;;
28802;SDS011;15949;55.656;37.422;2023-01-26T06:29:19;23.48;;;14.02;;
28802;SDS011;15949;55.656;37.422;2023-01-26T06:34:25;21.80;;;13.10;;
28802;SDS011;15949;55.656;37.422;2023-01-26T06:39:31;20.17;;;13.30;;
28802;SDS011;15949;55.656;37.422;2023-01-26T06:44:36;20.42;;;13.25;;
28802;SDS011;15949;55.656;37.422;2023-01-26T06:49:42;21.33;;;13.70;;
28802;SDS011;15949;55.656;37.422;2023-01-26T06:54:48;19.33;;;12.77;;
28802;SDS011;15949;55.656;37.422;2023-01-26T06:59:54;20.42;;;12.57;;
28802;SDS011;15949;55.656;37.422;2023-01-26T07:05:01;24.63;;;13.32;;
28802;SDS011;15949;55.656;37.422;2023-01-26T07:10:07;19.42;;;11.85;;
28802;SDS011;15949;55.656;37.422;2023-01-26T07:15:14;19.25;;;12.93;;
28802;SDS011;15949;55.656;37.422;2023-01-26T07:20:19;19.65;;;12.45;;
28802;SDS011;15949;55.656;37.422;2023-01-26T07:25:25;20.05;;;11.95;;
28802;SDS011;15949;55.656;37.422;2023-01-26T07:30:31;18.35;;;12.18;;
28802;SDS011;15949;55.656;37.422;2023-01-26T07:35:37;17.73;;;11.43;;
28802;SDS011;15949;55.656;37.422;2023-01-26T07:40:42;19.17;;;11.23;;
28802;SDS011;15949;55.656;37.422;2023-01-26T07:45:49;20.08;;;10.88;;
28802;SDS011;15949;55.656;37.422;2023-01-26T07:50:57;16.67;;;10.95;;
28802;SDS011;15949;55.656;37.422;2023-01-26T07:56:05;20.55;;;12.02;;
28802;SDS011;15949;55.656;37.422;2023-01-26T08:01:11;16.58;;;10.43;;
28802;SDS011;15949;55.656;37.422;2023-01-26T08:06:18;17.42;;;10.52;;
28802;SDS011;15949;55.656;37.422;2023-01-26T08:11:24;15.73;;;9.88;;
28802;SDS011;15949;55.656;37.422;2023-01-26T08:16:31;13.85;;;9.50;;
28802;SDS011;15949;55.656;37.422;2023-01-26T08:21:36;16.08;;;9.77;;
28802;SDS011;15949;55.656;37.422;2023-01-26T08:26:42;15.18;;;9.65;;
28802;SDS011;15949;55.656;37.422;2023-01-26T08:31:47;15.35;;;9.05;;
28802;SDS011;15949;55.656;37.422;2023-01-26T08:36:53;15.20;;;9.15;;
28802;SDS011;15949;55.656;37.422;2023-01-26T08:41:58;14.05;;;8.70;;
28802;SDS011;15949;55.656;37.422;2023-01-26T08:47:04;13.00;;;8.90;;
28802;SDS011;15949;55.656;37.422;2023-01-26T08:52:10;15.68;;;8.82;;
28802;SDS011;15949;55.656;37.422;2023-01-26T08:57:15;12.88;;;8.60;;
28802;SDS011;15949;55.656;37.422;2023-01-26T09:02:21;13.55;;;8.48;;
28802;SDS011;15949;55.656;37.422;2023-01-26T09:07:26;14.63;;;9.30;;
28802;SDS011;15949;55.656;37.422;2023-01-26T09:12:32;14.75;;;8.93;;
28802;SDS011;15949;55.656;37.422;2023-01-26T09:17:38;13.77;;;9.18;;
28802;SDS011;15949;55.656;37.422;2023-01-26T09:22:43;13.80;;;8.68;;
28802;SDS011;15949;55.656;37.422;2023-01-26T09:27:49;14.45;;;8.35;;
28802;SDS011;15949;55.656;37.422;2023-01-26T09:32:58;14.45;;;8.68;;
28802;SDS011;15949;55.656;37.422;2023-01-26T09:38:05;14.45;;;9.48;;
28802;SDS011;15949;55.656;37.422;2023-01-26T09:48:37;17.05;;;9.27;;
28802;SDS011;15949;55.656;37.422;2023-01-26T09:53:54;17.20;;;10.18;;
28802;SDS011;15949;55.656;37.422;2023-01-26T09:59:05;16.90;;;9.07;;
28802;SDS011;15949;55.656;37.422;2023-01-26T10:04:33;19.33;;;9.80;;
28802;SDS011;15949;55.656;37.422;2023-01-26T10:09:46;14.52;;;9.27;;
28802;SDS011;15949;55.656;37.422;2023-01-26T10:25:35;15.60;;;9.55;;
28802;SDS011;15949;55.656;37.422;2023-01-26T10:30:43;17.80;;;9.30;;
28802;SDS011;15949;55.656;37.422;2023-01-26T10:35:50;14.25;;;9.18;;
28802;SDS011;15949;55.656;37.422;2023-01-26T10:40:56;15.38;;;9.82;;
28802;SDS011;15949;55.656;37.422;2023-01-26T10:51:40;17.00;;;9.88;;
28802;SDS011;15949;55.656;37.422;2023-01-26T11:02:25;16.63;;;9.57;;
28802;SDS011;15949;55.656;37.422;2023-01-26T11:07:34;18.73;;;10.90;;
28802;SDS011;15949;55.656;37.422;2023-01-26T11:12:42;16.40;;;9.60;;
28802;SDS011;15949;55.656;37.422;2023-01-26T11:18:01;16.48;;;10.45;;
28802;SDS011;15949;55.656;37.422;2023-01-26T11:28:33;19.23;;;10.90;;
28802;SDS011;15949;55.656;37.422;2023-01-26T11:39:26;20.33;;;10.63;;
28802;SDS011;15949;55.656;37.422;2023-01-26T12:00:41;21.90;;;12.30;;
28802;SDS011;15949;55.656;37.422;2023-01-26T12:05:54;22.60;;;11.70;;
28802;SDS011;15949;55.656;37.422;2023-01-26T12:11:18;23.20;;;12.15;;
28802;SDS011;15949;55.656;37.422;2023-01-26T12:22:02;23.75;;;12.82;;
28802;SDS011;15949;55.656;37.422;2023-01-26T12:27:18;26.05;;;13.65;;
28802;SDS011;15949;55.656;37.422;2023-01-26T12:32:32;25.02;;;14.80;;
28802;SDS011;15949;55.656;37.422;2023-01-26T12:48:44;25.98;;;13.80;;
28802;SDS011;15949;55.656;37.422;2023-01-26T12:54:15;27.98;;;15.68;;
28802;SDS011;15949;55.656;37.422;2023-01-26T12:59:35;29.83;;;15.27;;
28802;SDS011;15949;55.656;37.422;2023-01-26T13:04:43;29.75;;;13.82;;
28802;SDS011;15949;55.656;37.422;2023-01-26T13:15:28;28.20;;;14.55;;
28802;SDS011;15949;55.656;37.422;2023-01-26T13:25:47;25.55;;;14.07;;
28802;SDS011;15949;55.656;37.422;2023-01-26T13:31:10;27.27;;;14.68;;
28802;SDS011;15949;55.656;37.422;2023-01-26T13:36:17;25.85;;;14.30;;
28802;SDS011;15949;55.656;37.422;2023-01-26T13:41:25;26.27;;;15.05;;
28802;SDS011;15949;55.656;37.422;2023-01-26T13:51:45;25.67;;;14.35;;
28802;SDS011;15949;55.656;37.422;2023-01-26T14:02:19;26.53;;;14.33;;
28802;SDS011;15949;55.656;37.422;2023-01-26T14:12:47;26.70;;;15.00;;
28802;SDS011;15949;55.656;37.422;2023-01-26T14:18:02;25.83;;;15.20;;
28802;SDS011;15949;55.656;37.422;2023-01-26T14:23:10;25.88;;;14.13;;
28802;SDS011;15949;55.656;37.422;2023-01-26T14:28:19;21.57;;;11.27;;
28802;SDS011;15949;55.656;37.422;2023-01-26T14:33:27;24.17;;;14.13;;
28802;SDS011;15949;55.656;37.422;2023-01-26T14:38:43;24.48;;;13.68;;
28802;SDS011;15949;55.656;37.422;2023-01-26T14:43:51;24.42;;;14.23;;
28802;SDS011;15949;55.656;37.422;2023-01-26T14:48:59;25.45;;;15.10;;
28802;SDS011;15949;55.656;37.422;2023-01-26T14:54:16;27.90;;;14.23;;
28802;SDS011;15949;55.656;37.422;2023-01-26T14:59:35;22.73;;;14.27;;
28802;SDS011;15949;55.656;37.422;2023-01-26T15:04:44;23.77;;;14.45;;
28802;SDS011;15949;55.656;37.422;2023-01-26T15:09:57;26.70;;;15.15;;
28802;SDS011;15949;55.656;37.422;2023-01-26T15:15:10;24.05;;;14.32;;
28802;SDS011;15949;55.656;37.422;2023-01-26T15:25:23;23.15;;;14.07;;
28802;SDS011;15949;55.656;37.422;2023-01-26T15:30:32;22.88;;;13.18;;
28802;SDS011;15949;55.656;37.422;2023-01-26T15:35:39;23.83;;;13.75;;
28802;SDS011;15949;55.656;37.422;2023-01-26T15:40:45;21.08;;;13.40;;
28802;SDS011;15949;55.656;37.422;2023-01-26T15:45:56;21.77;;;13.52;;
28802;SDS011;15949;55.656;37.422;2023-01-26T15:51:04;23.92;;;13.18;;
28802;SDS011;15949;55.656;37.422;2023-01-26T15:56:21;20.23;;;13.40;;
28802;SDS011;15949;55.656;37.422;2023-01-26T16:01:27;20.42;;;13.98;;
28802;SDS011;15949;55.656;37.422;2023-01-26T16:06:32;31.52;;;17.52;;
28802;SDS011;15949;55.656;37.422;2023-01-26T16:11:41;34.80;;;17.88;;
28802;SDS011;15949;55.656;37.422;2023-01-26T16:16:51;24.45;;;15.38;;
28802;SDS011;15949;55.656;37.422;2023-01-26T16:21:56;29.08;;;17.40;;
28802;SDS011;15949;55.656;37.422;2023-01-26T16:27:02;30.05;;;18.50;;
28802;SDS011;15949;55.656;37.422;2023-01-26T16:32:25;30.10;;;17.63;;
28802;SDS011;15949;55.656;37.422;2023-01-26T16:37:32;29.80;;;17.67;;
28802;SDS011;15949;55.656;37.422;2023-01-26T16:42:38;29.95;;;17.50;;
28802;SDS011;15949;55.656;37.422;2023-01-26T16:47:50;26.45;;;16.38;;
28802;SDS011;15949;55.656;37.422;2023-01-26T16:52:59;23.77;;;15.77;;
28802;SDS011;15949;55.656;37.422;2023-01-26T16:58:11;25.73;;;15.95;;
28802;SDS011;15949;55.656;37.422;2023-01-26T17:03:17;29.95;;;16.63;;
28802;SDS011;15949;55.656;37.422;2023-01-26T17:08:22;25.67;;;16.30;;
28802;SDS011;15949;55.656;37.422;2023-01-26T17:13:28;30.42;;;16.83;;
28802;SDS011;15949;55.656;37.422;2023-01-26T17:18:35;27.35;;;15.85;;
28802;SDS011;15949;55.656;37.422;2023-01-26T17:23:40;23.55;;;15.50;;
28802;SDS011;15949;55.656;37.422;2023-01-26T17:28:50;27.85;;;16.27;;
28802;SDS011;15949;55.656;37.422;2023-01-26T17:33:57;23.00;;;15.02;;
28802;SDS011;15949;55.656;37.422;2023-01-26T17:39:03;28.20;;;15.93;;
28802;SDS011;15949;55.656;37.422;2023-01-26T17:44:09;26.38;;;15.20;;
28802;SDS011;15949;55.656;37.422;2023-01-26T17:49:14;26.88;;;14.93;;
28802;SDS011;15949;55.656;37.422;2023-01-26T17:54:20;30.20;;;16.48;;
28802;SDS011;15949;55.656;37.422;2023-01-26T17:59:26;24.88;;;15.05;;
28802;SDS011;15949;55.656;37.422;2023-01-26T18:04:31;26.50;;;15.10;;
28802;SDS011;15949;55.656;37.422;2023-01-26T18:09:37;24.30;;;14.85;;
28802;SDS011;15949;55.656;37.422;2023-01-26T18:14:42;26.42;;;15.45;;
28802;SDS011;15949;55.656;37.422;2023-01-26T18:19:49;26.65;;;15.27;;
28802;SDS011;15949;55.656;37.422;2023-01-26T18:24:54;25.58;;;14.80;;
28802;SDS011;15949;55.656;37.422;2023-01-26T18:30:00;26.90;;;15.60;;
28802;SDS011;15949;55.656;37.422;2023-01-26T18:35:05;25.48;;;14.20;;
28802;SDS011;15949;55.656;37.422;2023-01-26T18:40:11;23.85;;;14.80;;
28802;SDS011;15949;55.656;37.422;2023-01-26T18:45:17;23.95;;;15.02;;
28802;SDS011;15949;55.656;37.422;2023-01-26T18:50:23;24.17;;;14.70;;
28802;SDS011;15949;55.656;37.422;2023-01-26T18:55:28;23.00;;;14.75;;
28802;SDS011;15949;55.656;37.422;2023-01-26T19:00:38;26.27;;;15.27;;
28802;SDS011;15949;55.656;37.422;2023-01-26T19:05:44;23.38;;;14.38;;
28802;SDS011;15949;55.656;37.422;2023-01-26T19:10:50;24.25;;;14.43;;
28802;SDS011;15949;55.656;37.422;2023-01-26T19:15:56;27.20;;;15.15;;
28802;SDS011;15949;55.656;37.422;2023-01-26T19:21:02;23.75;;;14.60;;
28802;SDS011;15949;55.656;37.422;2023-01-26T19:26:12;23.88;;;14.35;;
28802;SDS011;15949;55.656;37.422;2023-01-26T19:31:21;24.98;;;14.30;;
28802;SDS011;15949;55.656;37.422;2023-01-26T19:36:28;23.13;;;13.55;;
28802;SDS011;15949;55.656;37.422;2023-01-26T19:41:35;25.85;;;13.98;;
28802;SDS011;15949;55.656;37.422;2023-01-26T19:46:43;20.65;;;12.85;;
28802;SDS011;15949;55.656;37.422;2023-01-26T19:51:48;20.33;;;12.93;;
28802;SDS011;15949;55.656;37.422;2023-01-26T19:56:54;24.13;;;14.13;;
28802;SDS011;15949;55.656;37.422;2023-01-26T20:01:59;24.08;;;14.35;;
28802;SDS011;15949;55.656;37.422;2023-01-26T20:07:05;21.73;;;13.25;;
28802;SDS011;15949;55.656;37.422;2023-01-26T20:12:11;21.08;;;12.95;;
28802;SDS011;15949;55.656;37.422;2023-01-26T20:17:17;23.70;;;13.27;;
28802;SDS011;15949;55.656;37.422;2023-01-26T20:22:23;24.35;;;13.63;;
28802;SDS011;15949;55.656;37.422;2023-01-26T20:27:29;20.92;;;12.88;;
28802;SDS011;15949;55.656;37.422;2023-01-26T20:32:35;27.38;;;13.98;;
28802;SDS011;15949;55.656;37.422;2023-01-26T20:37:41;23.33;;;14.00;;
28802;SDS011;15949;55.656;37.422;2023-01-26T20:42:47;26.80;;;14.73;;
28802;SDS011;15949;55.656;37.422;2023-01-26T20:47:53;26.30;;;14.73;;
28802;SDS011;15949;55.656;37.422;2023-01-26T20:52:58;27.58;;;13.98;;
28802;SDS011;15949;55.656;37.422;2023-01-26T20:58:04;25.00;;;14.98;;
28802;SDS011;15949;55.656;37.422;2023-01-26T21:03:09;21.90;;;13.20;;
28802;SDS011;15949;55.656;37.422;2023-01-26T21:08:15;24.38;;;13.70;;
28802;SDS011;15949;55.656;37.422;2023-01-26T21:13:20;23.80;;;13.68;;
28802;SDS011;15949;55.656;37.422;2023-01-26T21:18:26;24.73;;;13.40;;
28802;SDS011;15949;55.656;37.422;2023-01-26T21:23:32;25.42;;;13.55;;
28802;SDS011;15949;55.656;37.422;2023-01-26T21:28:39;23.88;;;12.73;;
28802;SDS011;15949;55.656;37.422;2023-01-26T21:33:45;25.50;;;13.73;;
28802;SDS011;15949;55.656;37.422;2023-01-26T21:38:53;23.88;;;13.13;;
28802;SDS011;15949;55.656;37.422;2023-01-26T21:44:07;24.10;;;12.98;;
28802;SDS011;15949;55.656;37.422;2023-01-26T21:49:17;21.02;;;13.02;;
28802;SDS011;15949;55.656;37.422;2023-01-26T21:54:23;21.98;;;12.85;;
28802;SDS011;15949;55.656;37.422;2023-01-26T21:59:29;26.38;;;12.85;;
28802;SDS011;15949;55.656;37.422;2023-01-26T22:04:34;20.83;;;12.60;;
28802;SDS011;15949;55.656;37.422;2023-01-26T22:09:40;26.33;;;13.88;;
28802;SDS011;15949;55.656;37.422;2023-01-26T22:14:46;23.30;;;12.75;;
28802;SDS011;15949;55.656;37.422;2023-01-26T22:19:52;26.42;;;13.45;;
28802;SDS011;15949;55.656;37.422;2023-01-26T22:24:59;25.15;;;12.85;;
28802;SDS011;15949;55.656;37.422;2023-01-26T22:30:05;23.67;;;13.05;;
28802;SDS011;15949;55.656;37.422;2023-01-26T22:35:11;24.27;;;12.57;;
28802;SDS011;15949;55.656;37.422;2023-01-26T22:40:17;21.95;;;12.98;;
28802;SDS011;15949;55.656;37.422;2023-01-26T22:45:23;21.42;;;12.23;;
28802;SDS011;15949;55.656;37.422;2023-01-26T22:50:28;21.15;;;12.55;;
28802;SDS011;15949;55.656;37.422;2023-01-26T22:55:37;20.02;;;12.18;;
28802;SDS011;15949;55.656;37.422;2023-01-26T23:00:45;22.45;;;12.95;;
28802;SDS011;15949;55.656;37.422;2023-01-26T23:05:50;24.35;;;13.18;;
28802;SDS011;15949;55.656;37.422;2023-01-26T23:11:03;23.42;;;12.90;;
28802;SDS011;15949;55.656;37.422;2023-01-26T23:16:13;22.50;;;12.52;;
28802;SDS011;15949;55.656;37.422;2023-01-26T23:21:19;23.00;;;12.10;;
28802;SDS011;15949;55.656;37.422;2023-01-26T23:26:25;20.02;;;11.90;;
28802;SDS011;15949;55.656;37.422;2023-01-26T23:31:31;21.92;;;12.43;;
28802;SDS011;15949;55.656;37.422;2023-01-26T23:36:36;20.17;;;12.18;;
28802;SDS011;15949;55.656;37.422;2023-01-26T23:41:42;20.98;;;11.82;;
28802;SDS011;15949;55.656;37.422;2023-01-26T23:46:47;19.85;;;11.85;;
28802;SDS011;15949;55.656;37.422;2023-01-26T23:51:53;21.05;;;11.55;;
28802;SDS011;15949;55.656;37.422;2023-01-26T23:56:59;20.80;;;11.38;;
